Terminal Aerodrome Forecast
Issued by NWS Paducah, KY

Home | Current Version | Previous Version | Text Only | Print | Product List | Glossary On
Versions: 1 2 3 4 5 6 7 8 9 10 11 12 13
000
FTUS43 KPAH 271700
TAFEVV
TAF
KEVV 271729Z 2718/2818 VRB04KT P6SM SCT040
     FM280100 00000KT P6SM SCT250
     FM280900 00000KT 4SM BR SCT025
     FM281400 12003KT P6SM SCT050=

USA.gov is the U.S. government's official web portal to all federal, state and local government web resources and services.